createdAt,value
2019-06-15T00:00:29.213Z,71.66
2019-06-15T00:02:58.121Z,71.11
2019-06-15T00:05:26.994Z,71.12
2019-06-15T00:07:55.914Z,71.97
2019-06-15T00:10:24.780Z,72.69
2019-06-15T00:12:53.662Z,72.97
2019-06-15T00:15:22.572Z,72.97
2019-06-15T00:17:51.488Z,73.05
2019-06-15T00:20:20.436Z,73.70
2019-06-15T00:22:49.338Z,73.97
2019-06-15T00:25:18.254Z,74.32
2019-06-15T00:27:47.149Z,74.93
2019-06-15T00:30:16.060Z,75.17
2019-06-15T00:32:44.984Z,74.10
2019-06-15T00:35:13.878Z,74.03
2019-06-15T00:37:42.762Z,75.88
2019-06-15T00:40:11.705Z,76.28
2019-06-15T00:42:40.594Z,75.70
2019-06-15T00:45:09.491Z,75.15
2019-06-15T00:47:38.364Z,75.14
2019-06-15T00:50:07.397Z,74.90
2019-06-15T00:52:36.285Z,74.41
2019-06-15T00:55:05.298Z,74.23
2019-06-15T00:57:34.318Z,74.29
2019-06-15T01:00:03.154Z,73.71
2019-06-15T01:02:32.062Z,74.21
2019-06-15T01:05:00.974Z,74.53
2019-06-15T01:07:29.878Z,74.74
2019-06-15T01:09:58.795Z,74.88
2019-06-15T01:12:27.688Z,74.71
2019-06-15T01:14:56.612Z,74.85
2019-06-15T01:17:25.517Z,75.12
2019-06-15T01:19:54.449Z,75.37
2019-06-15T01:22:23.326Z,75.77
2019-06-15T01:25:04.941Z,75.79
2019-06-15T01:27:21.190Z,75.85
2019-06-15T01:29:50.090Z,75.83
2019-06-15T01:32:19.005Z,75.59
2019-06-15T01:34:47.898Z,75.10
2019-06-15T01:37:16.780Z,75.62
2019-06-15T01:39:45.694Z,75.38
2019-06-15T01:42:14.587Z,75.51
2019-06-15T01:44:43.500Z,75.18
2019-06-15T01:47:12.388Z,75.53
2019-06-15T01:49:41.308Z,75.33
2019-06-15T01:52:10.225Z,75.63
2019-06-15T01:54:39.132Z,75.97
2019-06-15T01:57:08.087Z,76.17
2019-06-15T01:59:36.990Z,76.86
2019-06-15T02:02:05.935Z,76.72
2019-06-15T02:04:34.849Z,76.18
2019-06-15T02:07:03.782Z,77.42
2019-06-15T02:09:32.666Z,77.57
2019-06-15T02:12:01.591Z,77.97
2019-06-15T02:14:30.518Z,78.23
2019-06-15T02:16:59.431Z,78.50
2019-06-15T02:19:28.476Z,78.65
2019-06-15T02:21:57.320Z,78.75
2019-06-15T02:24:26.218Z,79.24
2019-06-15T02:26:55.125Z,79.78
2019-06-15T02:29:24.010Z,80.29
2019-06-15T02:31:53.003Z,80.87
2019-06-15T02:34:21.874Z,81.83
2019-06-15T02:36:50.777Z,82.72
2019-06-15T02:39:19.672Z,83.49
2019-06-15T02:41:48.551Z,83.77
2019-06-15T02:44:17.520Z,84.53
2019-06-15T02:46:46.847Z,84.39
2019-06-15T02:49:15.729Z,83.70
2019-06-15T02:51:44.623Z,83.87
2019-06-15T02:54:13.524Z,84.23
2019-06-15T02:56:42.413Z,85.14
2019-06-15T02:59:11.311Z,85.03
2019-06-15T03:01:40.195Z,85.59
2019-06-15T03:04:09.163Z,84.99
2019-06-15T03:06:38.024Z,85.28
2019-06-15T03:09:07.011Z,85.57
2019-06-15T03:11:35.935Z,85.42
2019-06-15T03:14:05.405Z,86.72
2019-06-15T03:16:34.323Z,86.71
2019-06-15T03:19:03.226Z,86.82
2019-06-15T03:21:32.115Z,87.04
2019-06-15T03:24:01.017Z,86.64
2019-06-15T03:26:29.910Z,86.70
2019-06-15T03:28:58.826Z,86.40
2019-06-15T03:31:27.705Z,86.55
2019-06-15T03:33:56.622Z,87.38
2019-06-15T03:36:25.517Z,86.75
2019-06-15T03:38:54.431Z,87.35
2019-06-15T03:41:23.377Z,87.80
2019-06-15T03:43:52.277Z,87.93
2019-06-15T03:46:21.168Z,88.02
2019-06-15T03:48:50.059Z,88.45
2019-06-15T03:51:18.936Z,88.20
2019-06-15T03:53:47.867Z,88.19
2019-06-15T03:56:21.755Z,88.12
2019-06-15T03:58:45.651Z,88.05
2019-06-15T04:01:27.178Z,87.78
2019-06-15T04:03:56.059Z,87.82
2019-06-15T04:06:24.968Z,88.00
2019-06-15T04:08:53.920Z,88.17
2019-06-15T04:11:22.813Z,88.01
2019-06-15T04:13:51.738Z,86.59
2019-06-15T04:16:20.624Z,88.21
2019-06-15T04:18:49.541Z,88.63
2019-06-15T04:21:18.451Z,88.98
2019-06-15T04:23:47.349Z,89.90
2019-06-15T04:26:16.254Z,90.46
2019-06-15T04:28:45.141Z,90.30
2019-06-15T04:31:14.090Z,89.98
2019-06-15T04:33:43.009Z,90.24
2019-06-15T04:36:11.919Z,91.81
2019-06-15T04:38:40.822Z,91.57
2019-06-15T04:41:09.854Z,92.63
2019-06-15T04:43:38.697Z,92.57
2019-06-15T04:46:07.661Z,90.54
2019-06-15T04:48:36.564Z,89.93
2019-06-15T04:51:05.620Z,92.52
2019-06-15T04:53:34.533Z,93.58
2019-06-15T04:56:03.450Z,93.62
2019-06-15T04:58:32.328Z,94.54
2019-06-15T05:01:01.283Z,94.66
2019-06-15T05:03:30.177Z,95.42
2019-06-15T05:05:59.067Z,94.65
2019-06-15T05:08:27.984Z,94.31
2019-06-15T05:10:59.940Z,94.35
2019-06-15T05:13:25.787Z,94.51
2019-06-15T05:15:54.686Z,94.30
2019-06-15T05:18:23.607Z,93.71
2019-06-15T05:20:52.553Z,93.83
2019-06-15T05:23:21.405Z,93.75
2019-06-15T05:25:50.326Z,93.14
2019-06-15T05:28:19.215Z,92.92
2019-06-15T05:30:48.133Z,92.72
2019-06-15T05:33:17.063Z,92.87
2019-06-15T05:35:45.963Z,92.38
2019-06-15T05:38:14.868Z,92.57
2019-06-15T05:40:43.746Z,92.88
2019-06-15T05:43:12.680Z,92.93
2019-06-15T05:45:41.610Z,93.02
2019-06-15T05:48:10.506Z,91.50
2019-06-15T05:50:39.402Z,92.44
2019-06-15T05:53:08.480Z,92.43
2019-06-15T05:55:37.361Z,92.39
2019-06-15T05:58:06.255Z,92.03
2019-06-15T06:00:35.178Z,92.21
2019-06-15T06:03:04.116Z,91.72
2019-06-15T06:05:33.041Z,91.54
2019-06-15T06:08:01.935Z,91.54
2019-06-15T06:10:30.858Z,91.25
2019-06-15T06:12:59.764Z,91.40
2019-06-15T06:15:28.676Z,91.45
2019-06-15T06:17:57.574Z,91.25
2019-06-15T06:20:26.464Z,91.18
2019-06-15T06:22:55.358Z,91.26
2019-06-15T06:25:24.277Z,91.04
2019-06-15T06:27:53.175Z,91.02
2019-06-15T06:30:22.076Z,90.78
2019-06-15T06:32:51.023Z,90.34
2019-06-15T06:35:19.892Z,90.25
2019-06-15T06:37:48.768Z,89.88
2019-06-15T06:40:17.687Z,89.67
2019-06-15T06:42:46.593Z,89.65
2019-06-15T06:45:15.513Z,89.30
2019-06-15T06:47:44.423Z,89.52
2019-06-15T06:50:13.366Z,89.30
2019-06-15T06:52:42.274Z,88.89
2019-06-15T06:55:11.173Z,88.75
2019-06-15T06:57:52.360Z,88.23
2019-06-15T07:00:09.043Z,88.17
2019-06-15T07:02:37.963Z,88.02
2019-06-15T07:05:06.973Z,88.38
2019-06-15T07:07:35.902Z,88.39
2019-06-15T07:10:05.441Z,87.90
2019-06-15T07:12:34.425Z,87.37
2019-06-15T07:15:04.860Z,86.89
2019-06-15T07:17:32.285Z,86.01
2019-06-15T07:20:01.226Z,82.69
2019-06-15T07:22:30.178Z,84.63
2019-06-15T07:24:59.028Z,84.05
2019-06-15T07:27:28.131Z,84.05
2019-06-15T07:29:57.048Z,83.76
2019-06-15T07:32:25.951Z,83.66
2019-06-15T07:34:54.847Z,84.01
2019-06-15T07:37:23.758Z,83.49
2019-06-15T07:39:52.693Z,83.68
2019-06-15T07:42:21.696Z,83.28
2019-06-15T07:44:50.590Z,83.99
2019-06-15T07:47:19.578Z,84.15
2019-06-15T07:49:48.432Z,84.71
2019-06-15T07:52:17.338Z,82.63
2019-06-15T07:54:46.273Z,84.42
2019-06-15T07:57:15.197Z,84.45
2019-06-15T07:59:44.107Z,84.99
2019-06-15T08:02:13.029Z,85.17
2019-06-15T08:04:41.949Z,85.24
2019-06-15T08:07:10.840Z,84.93
2019-06-15T08:09:39.735Z,84.04
2019-06-15T08:12:08.667Z,82.92
2019-06-15T08:14:37.574Z,82.10
2019-06-15T08:17:06.640Z,81.26
2019-06-15T08:19:35.508Z,81.20
2019-06-15T08:22:04.385Z,80.39
2019-06-15T08:24:33.279Z,80.28
2019-06-15T08:27:02.216Z,81.02
2019-06-15T08:29:31.089Z,79.40
2019-06-15T08:32:00.026Z,78.85
2019-06-15T08:34:33.887Z,78.88
2019-06-15T08:37:03.190Z,77.77
2019-06-15T08:39:32.727Z,78.84
2019-06-15T08:42:14.378Z,78.43
2019-06-15T08:44:42.111Z,76.58
2019-06-15T08:47:16.094Z,77.87
2019-06-15T08:49:48.357Z,77.79
2019-06-15T08:52:20.058Z,76.72
2019-06-15T08:54:49.303Z,75.75
2019-06-15T08:57:18.547Z,73.96
2019-06-15T08:59:47.796Z,71.66
2019-06-15T09:02:17.338Z,72.87
2019-06-15T09:04:46.661Z,74.10
2019-06-15T09:07:18.168Z,72.62
2019-06-15T09:09:47.457Z,72.39
2019-06-15T09:12:16.647Z,72.62
2019-06-15T09:14:45.796Z,74.03
2019-06-15T09:17:15.123Z,73.95
2019-06-15T09:19:46.946Z,75.61
2019-06-15T09:22:16.131Z,75.53
2019-06-15T09:24:45.285Z,76.55
2019-06-15T09:27:14.820Z,74.99
2019-06-15T09:29:43.959Z,77.20
2019-06-15T09:32:13.086Z,77.25
2019-06-15T09:34:42.327Z,77.44
2019-06-15T09:37:19.844Z,78.00
2019-06-15T09:39:49.208Z,78.66
2019-06-15T09:42:20.985Z,76.60
2019-06-15T09:44:50.084Z,76.46
2019-06-15T09:47:23.932Z,77.46
2019-06-15T09:49:53.135Z,77.82
2019-06-15T09:52:25.097Z,78.49
2019-06-15T09:54:54.204Z,77.43
2019-06-15T09:57:32.025Z,77.00
2019-06-15T10:00:01.130Z,75.96
2019-06-15T10:02:30.936Z,73.44
2019-06-15T10:05:02.847Z,72.65
2019-06-15T10:07:34.963Z,71.65
2019-06-15T10:10:11.595Z,68.83
2019-06-15T10:12:43.310Z,66.42
2019-06-15T10:15:14.413Z,65.91
2019-06-15T10:17:46.266Z,65.21
2019-06-15T10:20:20.128Z,64.56
2019-06-15T10:22:47.204Z,64.94
2019-06-15T10:25:16.403Z,63.73
2019-06-15T10:27:58.251Z,63.12
2019-06-15T10:30:25.756Z,59.02
2019-06-15T10:32:56.760Z,59.10
2019-06-15T10:35:27.743Z,58.17
2019-06-15T10:38:12.754Z,54.02
2019-06-15T10:40:41.933Z,54.44
2019-06-15T10:43:15.711Z,53.95
2019-06-15T10:45:45.636Z,54.19
2019-06-15T10:48:14.753Z,54.77
2019-06-15T10:50:53.536Z,52.48
2019-06-15T10:53:20.375Z,51.09
2019-06-15T10:55:49.739Z,48.88
2019-06-15T10:58:19.117Z,48.43
2019-06-15T11:01:10.530Z,44.63
2019-06-15T11:03:45.636Z,49.28
2019-06-15T11:06:14.918Z,47.67
2019-06-15T11:08:44.453Z,46.34
2019-06-15T11:11:21.981Z,43.95
2019-06-15T11:13:53.757Z,43.18
2019-06-15T11:16:26.209Z,43.97
2019-06-15T11:18:55.315Z,42.85
2019-06-15T11:21:25.104Z,46.60
2019-06-15T11:23:56.997Z,45.92
2019-06-15T11:26:30.296Z,46.31
2019-06-15T11:29:01.928Z,46.77
2019-06-15T11:31:33.993Z,48.91
2019-06-15T11:34:04.218Z,49.72
2019-06-15T11:36:33.269Z,49.02
2019-06-15T11:39:06.660Z,46.95
2019-06-15T11:41:36.041Z,43.07
2019-06-15T11:44:05.347Z,47.84
2019-06-15T11:46:34.645Z,51.51
2019-06-15T11:49:04.223Z,50.91
2019-06-15T11:51:35.417Z,52.96
2019-06-15T11:54:04.831Z,50.83
2019-06-15T11:56:33.974Z,52.72
2019-06-15T11:59:03.321Z,53.98
2019-06-15T12:01:32.472Z,54.85
2019-06-15T12:04:01.875Z,53.60
2019-06-15T12:06:36.182Z,54.29
2019-06-15T12:09:07.947Z,52.49
2019-06-15T12:11:39.643Z,53.49
2019-06-15T12:14:09.080Z,53.78
2019-06-15T12:16:38.579Z,53.72
2019-06-15T12:19:10.628Z,56.20
2019-06-15T12:21:40.054Z,55.26
2019-06-15T12:24:09.409Z,57.14
2019-06-15T12:26:38.581Z,56.59
2019-06-15T12:29:08.035Z,56.79
2019-06-15T12:31:39.823Z,57.12
2019-06-15T12:34:12.402Z,58.49
2019-06-15T12:36:41.633Z,58.00
2019-06-15T12:39:11.205Z,58.89
2019-06-15T12:41:43.636Z,58.58
2019-06-15T12:44:13.010Z,60.20
2019-06-15T12:46:42.325Z,59.47
2019-06-15T12:49:14.115Z,59.96
2019-06-15T12:51:51.313Z,60.06
2019-06-15T12:54:20.507Z,60.03
2019-06-15T12:56:49.606Z,60.48
2019-06-15T12:59:24.115Z,60.48
2019-06-15T13:01:55.678Z,59.74
2019-06-15T13:04:26.361Z,59.87
2019-06-15T13:06:55.814Z,58.43
2019-06-15T13:09:28.257Z,58.08
2019-06-15T13:12:00.693Z,57.54
2019-06-15T13:14:32.602Z,57.61
2019-06-15T13:17:04.945Z,57.58
2019-06-15T13:19:36.055Z,57.36
2019-06-15T13:22:06.429Z,56.81
2019-06-15T13:24:37.421Z,57.54
2019-06-15T13:27:07.039Z,56.20
2019-06-15T13:29:36.113Z,55.20
2019-06-15T13:32:05.692Z,55.10
2019-06-15T13:34:35.320Z,52.74
2019-06-15T13:37:04.607Z,55.24
2019-06-15T13:39:35.981Z,53.83
2019-06-15T13:42:09.867Z,54.80
2019-06-15T13:44:36.654Z,54.36
2019-06-15T13:47:09.247Z,54.40
2019-06-15T13:49:41.207Z,55.78
2019-06-15T13:52:10.462Z,56.32
2019-06-15T13:54:42.027Z,56.67
2019-06-15T13:57:11.429Z,55.67
2019-06-15T13:59:44.272Z,55.97
2019-06-15T14:02:13.421Z,57.20
2019-06-15T14:04:48.250Z,56.33
2019-06-15T14:07:20.921Z,55.69
2019-06-15T14:09:49.891Z,53.60
2019-06-15T14:12:19.147Z,54.48
2019-06-15T14:14:51.022Z,55.35
2019-06-15T14:17:25.538Z,55.52
2019-06-15T14:19:56.780Z,55.38
2019-06-15T14:22:24.252Z,55.22
2019-06-15T14:25:01.892Z,56.38
2019-06-15T14:27:31.269Z,55.62
2019-06-15T14:30:02.949Z,55.48
2019-06-15T14:32:32.115Z,55.67
2019-06-15T14:35:02.650Z,55.57
2019-06-15T14:37:37.682Z,55.38
2019-06-15T14:40:20.781Z,55.18
2019-06-15T14:42:51.959Z,54.48
2019-06-15T14:45:21.322Z,54.21
2019-06-15T14:47:51.193Z,53.16
2019-06-15T14:50:22.882Z,54.51
2019-06-15T14:52:55.154Z,54.38
2019-06-15T14:55:26.272Z,53.84
2019-06-15T14:57:55.947Z,54.10
2019-06-15T15:00:27.514Z,53.37
2019-06-15T15:02:57.455Z,54.44
2019-06-15T15:05:27.534Z,54.54
2019-06-15T15:08:01.107Z,55.16
2019-06-15T15:10:30.296Z,55.37
2019-06-15T15:13:03.109Z,55.57
2019-06-15T15:15:32.632Z,55.89
2019-06-15T15:18:02.211Z,56.63
2019-06-15T15:20:36.363Z,57.17
2019-06-15T15:23:14.247Z,57.23
2019-06-15T15:25:43.680Z,56.59
2019-06-15T15:28:17.311Z,57.10
2019-06-15T15:30:46.539Z,56.80
2019-06-15T15:33:15.859Z,57.73
2019-06-15T15:35:46.633Z,57.94
2019-06-15T15:38:14.130Z,57.09
2019-06-15T15:40:46.823Z,56.17
2019-06-15T15:43:15.995Z,55.36
2019-06-15T15:45:46.086Z,56.25
2019-06-15T15:48:13.636Z,55.73
2019-06-15T15:50:42.861Z,55.57
2019-06-15T15:53:12.091Z,55.43
2019-06-15T15:55:41.474Z,56.69
2019-06-15T15:58:16.481Z,56.24
2019-06-15T16:00:40.567Z,57.41
2019-06-15T16:03:10.052Z,58.20
2019-06-15T16:05:39.194Z,58.34
2019-06-15T16:08:09.007Z,59.41
2019-06-15T16:10:38.089Z,59.46
2019-06-15T16:13:09.893Z,59.68
2019-06-15T16:15:46.110Z,60.42
2019-06-15T16:18:17.159Z,59.60
2019-06-15T16:20:43.420Z,59.90
2019-06-15T16:23:12.281Z,59.37
2019-06-15T16:25:41.188Z,58.50
2019-06-15T16:28:10.174Z,57.59
2019-06-15T16:31:00.632Z,56.96
2019-06-15T16:33:08.282Z,58.12
2019-06-15T16:35:37.047Z,58.32
2019-06-15T16:38:06.889Z,59.29
2019-06-15T16:40:38.890Z,59.48
2019-06-15T16:43:07.938Z,59.31
2019-06-15T16:45:36.812Z,59.78
2019-06-15T16:48:06.367Z,58.76
2019-06-15T16:50:36.561Z,58.82
2019-06-15T16:53:03.808Z,59.07
2019-06-15T16:55:32.711Z,59.29
2019-06-15T16:58:01.605Z,58.25
2019-06-15T17:00:32.795Z,57.82
2019-06-15T17:02:59.423Z,58.32
2019-06-15T17:05:28.315Z,59.35
2019-06-15T17:07:57.205Z,58.87
2019-06-15T17:10:36.254Z,59.44
2019-06-15T17:13:06.773Z,60.25
2019-06-15T17:15:36.881Z,61.00
2019-06-15T17:18:03.379Z,61.01
2019-06-15T17:20:36.017Z,61.18
2019-06-15T17:23:02.959Z,61.65
2019-06-15T17:25:31.850Z,61.55
2019-06-15T17:28:00.765Z,61.09
2019-06-15T17:30:29.668Z,60.61
2019-06-15T17:32:58.572Z,60.50
2019-06-15T17:35:27.477Z,60.41
2019-06-15T17:37:56.536Z,60.33
2019-06-15T17:40:26.836Z,61.12
2019-06-15T17:42:54.187Z,61.56
2019-06-15T17:45:23.078Z,61.94
2019-06-15T17:47:51.995Z,63.05
2019-06-15T17:50:22.582Z,63.18
2019-06-15T17:52:51.463Z,63.68
2019-06-15T17:55:20.402Z,64.18
2019-06-15T17:57:49.301Z,63.41
2019-06-15T18:00:18.226Z,63.89
2019-06-15T18:02:47.131Z,64.34
2019-06-15T18:05:17.966Z,64.84
2019-06-15T18:07:46.978Z,64.37
2019-06-15T18:10:15.931Z,65.05
2019-06-15T18:12:42.776Z,65.13
2019-06-15T18:15:11.676Z,65.32
2019-06-15T18:17:40.589Z,66.02
2019-06-15T18:20:09.740Z,66.38
2019-06-15T18:22:38.633Z,66.37
2019-06-15T18:25:07.730Z,66.27
2019-06-15T18:27:37.224Z,66.75
2019-06-15T18:30:06.528Z,67.19
2019-06-15T18:32:37.662Z,67.30
2019-06-15T18:35:06.023Z,67.15
2019-06-15T18:37:32.531Z,67.55
2019-06-15T18:40:01.457Z,66.00
2019-06-15T18:42:30.339Z,67.28
2019-06-15T18:44:59.221Z,67.20
2019-06-15T18:47:28.145Z,66.93
2019-06-15T18:49:57.069Z,67.02
2019-06-15T18:52:26.581Z,67.62
2019-06-15T18:54:56.031Z,67.52
2019-06-15T18:57:23.822Z,67.07
2019-06-15T18:59:52.683Z,67.25
2019-06-15T19:02:21.579Z,67.90
2019-06-15T19:04:50.469Z,68.35
2019-06-15T19:07:19.373Z,67.59
2019-06-15T19:09:48.336Z,67.78
2019-06-15T19:12:20.677Z,67.67
2019-06-15T19:14:47.058Z,67.77
2019-06-15T19:17:16.492Z,68.04
2019-06-15T19:19:46.640Z,68.61
2019-06-15T19:22:12.780Z,68.60
2019-06-15T19:24:41.711Z,68.07
2019-06-15T19:27:10.624Z,67.75
2019-06-15T19:29:39.520Z,67.83
2019-06-15T19:32:08.560Z,67.44
2019-06-15T19:34:46.348Z,67.42
2019-06-15T19:37:06.831Z,67.02
2019-06-15T19:39:36.909Z,67.44
2019-06-15T19:42:04.176Z,67.12
2019-06-15T19:44:33.081Z,67.99
2019-06-15T19:47:02.008Z,68.81
2019-06-15T19:49:30.882Z,69.87
2019-06-15T19:51:59.809Z,70.16
2019-06-15T19:54:28.679Z,70.69
2019-06-15T19:56:57.593Z,70.84
2019-06-15T19:59:26.494Z,71.53
2019-06-15T20:01:55.384Z,71.93
2019-06-15T20:04:24.283Z,72.65
2019-06-15T20:06:53.158Z,72.76
2019-06-15T20:09:22.058Z,72.67
2019-06-15T20:11:50.944Z,73.12
2019-06-15T20:14:19.879Z,73.62
2019-06-15T20:16:48.799Z,73.23
2019-06-15T20:19:17.786Z,73.09
2019-06-15T20:21:46.572Z,73.08
2019-06-15T20:24:16.180Z,73.77
2019-06-15T20:26:44.393Z,74.60
2019-06-15T20:29:13.318Z,74.93
2019-06-15T20:31:42.205Z,73.82
2019-06-15T20:34:11.106Z,74.71
2019-06-15T20:36:40.026Z,74.62
2019-06-15T20:39:08.970Z,73.92
2019-06-15T20:41:37.876Z,73.36
2019-06-15T20:44:06.824Z,74.56
2019-06-15T20:46:37.136Z,74.78
2019-06-15T20:49:06.549Z,74.50
2019-06-15T20:51:33.578Z,74.46
2019-06-15T20:54:02.473Z,74.54
2019-06-15T20:56:31.365Z,74.59
2019-06-15T20:59:00.258Z,74.93
2019-06-15T21:01:29.159Z,75.01
2019-06-15T21:03:58.052Z,75.44
2019-06-15T21:06:26.955Z,75.92
2019-06-15T21:08:55.882Z,76.08
2019-06-15T21:11:26.555Z,76.08
2019-06-15T21:13:55.789Z,76.65
2019-06-15T21:16:22.578Z,76.80
2019-06-15T21:18:51.501Z,76.78
2019-06-15T21:21:20.377Z,77.71
2019-06-15T21:23:49.282Z,78.02
2019-06-15T21:26:18.171Z,78.08
2019-06-15T21:28:47.054Z,78.06
2019-06-15T21:31:16.710Z,78.57
2019-06-15T21:33:46.799Z,78.53
2019-06-15T21:36:13.725Z,78.68
2019-06-15T21:38:42.642Z,78.73
2019-06-15T21:41:11.532Z,79.37
2019-06-15T21:43:40.451Z,79.22
2019-06-15T21:46:09.395Z,79.38
2019-06-15T21:48:38.285Z,79.46
2019-06-15T21:51:08.087Z,79.67
2019-06-15T21:53:36.360Z,79.70
2019-06-15T21:56:07.155Z,78.90
2019-06-15T21:58:36.686Z,80.05
2019-06-15T22:01:23.003Z,80.17
2019-06-15T22:03:51.905Z,80.14
2019-06-15T22:06:20.805Z,80.17
2019-06-15T22:08:49.681Z,80.21
2019-06-15T22:11:18.581Z,80.33
2019-06-15T22:13:47.462Z,80.19
2019-06-15T22:16:17.101Z,79.99
2019-06-15T22:18:47.487Z,80.14
2019-06-15T22:21:16.137Z,80.30
2019-06-15T22:23:43.050Z,80.43
2019-06-15T22:26:11.960Z,80.39
2019-06-15T22:28:40.843Z,80.40
2019-06-15T22:31:09.727Z,80.08
2019-06-15T22:33:38.623Z,80.23
2019-06-15T22:36:20.891Z,80.34
2019-06-15T22:38:36.856Z,80.39
2019-06-15T22:41:06.028Z,80.37
2019-06-15T22:43:36.245Z,80.31
2019-06-15T22:46:03.182Z,80.16
2019-06-15T22:48:32.057Z,79.92
2019-06-15T22:51:00.960Z,80.00
2019-06-15T22:53:29.850Z,79.06
2019-06-15T22:55:58.748Z,78.54
2019-06-15T22:58:27.644Z,78.43
2019-06-15T23:00:56.855Z,78.94
2019-06-15T23:03:26.240Z,78.59
2019-06-15T23:05:56.987Z,78.18
2019-06-15T23:08:23.252Z,78.34
2019-06-15T23:10:52.194Z,78.33
2019-06-15T23:13:21.052Z,77.00
2019-06-15T23:15:49.942Z,77.97
2019-06-15T23:18:18.851Z,78.31
2019-06-15T23:20:47.740Z,78.27
2019-06-15T23:23:16.639Z,78.43
2019-06-15T23:25:47.186Z,78.71
2019-06-15T23:28:16.630Z,78.78
2019-06-15T23:30:43.605Z,79.06
2019-06-15T23:33:12.489Z,79.94
2019-06-15T23:35:46.546Z,79.31
2019-06-15T23:38:15.952Z,78.84
2019-06-15T23:40:42.966Z,78.61
2019-06-15T23:43:11.865Z,78.94
2019-06-15T23:45:40.746Z,78.86
2019-06-15T23:48:09.702Z,79.35
2019-06-15T23:50:38.592Z,79.23
2019-06-15T23:53:07.586Z,79.52
2019-06-15T23:55:36.668Z,78.34
2019-06-15T23:58:06.703Z,79.80
